sensor_id;sensor_type;location;lat;lon;timestamp;temperature;humidity
19232;DHT22;9750;48.730;10.294;2023-03-01T00:01:02;0.90;92.30
19232;DHT22;9750;48.730;10.294;2023-03-01T00:03:30;1.00;92.40
19232;DHT22;9750;48.730;10.294;2023-03-01T00:05:57;1.00;92.30
19232;DHT22;9750;48.730;10.294;2023-03-01T00:11:23;1.00;92.30
19232;DHT22;9750;48.730;10.294;2023-03-01T00:13:52;1.10;92.40
19232;DHT22;9750;48.730;10.294;2023-03-01T00:16:22;1.10;92.40
19232;DHT22;9750;48.730;10.294;2023-03-01T00:18:49;1.10;92.30
19232;DHT22;9750;48.730;10.294;2023-03-01T00:21:17;1.10;92.30
19232;DHT22;9750;48.730;10.294;2023-03-01T00:23:44;1.10;92.40
19232;DHT22;9750;48.730;10.294;2023-03-01T00:26:16;1.10;92.40
19232;DHT22;9750;48.730;10.294;2023-03-01T00:28:46;1.20;92.70
19232;DHT22;9750;48.730;10.294;2023-03-01T00:31:15;1.20;92.40
19232;DHT22;9750;48.730;10.294;2023-03-01T00:33:43;1.20;92.50
19232;DHT22;9750;48.730;10.294;2023-03-01T00:36:11;1.20;92.50
19232;DHT22;9750;48.730;10.294;2023-03-01T00:38:41;1.20;92.50
19232;DHT22;9750;48.730;10.294;2023-03-01T00:41:10;1.20;92.50
19232;DHT22;9750;48.730;10.294;2023-03-01T00:43:37;1.20;92.50
19232;DHT22;9750;48.730;10.294;2023-03-01T00:46:07;1.30;92.50
19232;DHT22;9750;48.730;10.294;2023-03-01T00:48:36;1.30;92.60
19232;DHT22;9750;48.730;10.294;2023-03-01T00:51:07;1.30;92.60
19232;DHT22;9750;48.730;10.294;2023-03-01T00:53:35;1.30;92.60
19232;DHT22;9750;48.730;10.294;2023-03-01T00:56:03;1.30;92.70
19232;DHT22;9750;48.730;10.294;2023-03-01T00:58:31;1.30;92.70
19232;DHT22;9750;48.730;10.294;2023-03-01T01:00:58;1.30;92.60
19232;DHT22;9750;48.730;10.294;2023-03-01T01:03:27;1.40;92.70
19232;DHT22;9750;48.730;10.294;2023-03-01T01:05:55;1.40;92.70
19232;DHT22;9750;48.730;10.294;2023-03-01T01:08:22;1.40;92.70
19232;DHT22;9750;48.730;10.294;2023-03-01T01:10:49;1.40;92.70
19232;DHT22;9750;48.730;10.294;2023-03-01T01:13:16;1.40;92.60
19232;DHT22;9750;48.730;10.294;2023-03-01T01:15:44;1.50;92.90
19232;DHT22;9750;48.730;10.294;2023-03-01T01:18:11;1.50;92.90
19232;DHT22;9750;48.730;10.294;2023-03-01T01:20:39;1.50;92.80
19232;DHT22;9750;48.730;10.294;2023-03-01T01:23:07;1.40;93.00
19232;DHT22;9750;48.730;10.294;2023-03-01T01:25:35;1.50;93.10
19232;DHT22;9750;48.730;10.294;2023-03-01T01:28:03;1.40;93.00
19232;DHT22;9750;48.730;10.294;2023-03-01T01:30:30;1.40;93.10
19232;DHT22;9750;48.730;10.294;2023-03-01T01:32:57;1.40;93.20
19232;DHT22;9750;48.730;10.294;2023-03-01T01:35:25;1.40;93.10
19232;DHT22;9750;48.730;10.294;2023-03-01T01:38:09;1.40;93.10
19232;DHT22;9750;48.730;10.294;2023-03-01T01:40:43;1.30;93.10
19232;DHT22;9750;48.730;10.294;2023-03-01T01:43:18;1.30;93.10
19232;DHT22;9750;48.730;10.294;2023-03-01T01:45:46;1.30;93.20
19232;DHT22;9750;48.730;10.294;2023-03-01T01:48:16;1.30;93.10
19232;DHT22;9750;48.730;10.294;2023-03-01T01:50:47;1.30;93.10
19232;DHT22;9750;48.730;10.294;2023-03-01T01:53:19;1.30;93.20
19232;DHT22;9750;48.730;10.294;2023-03-01T01:55:50;1.30;93.10
19232;DHT22;9750;48.730;10.294;2023-03-01T01:58:19;1.30;93.20
19232;DHT22;9750;48.730;10.294;2023-03-01T02:00:48;1.30;93.10
19232;DHT22;9750;48.730;10.294;2023-03-01T02:03:18;1.30;93.10
19232;DHT22;9750;48.730;10.294;2023-03-01T02:05:49;1.40;93.20
19232;DHT22;9750;48.730;10.294;2023-03-01T02:08:20;1.30;93.10
19232;DHT22;9750;48.730;10.294;2023-03-01T02:10:49;1.40;93.10
19232;DHT22;9750;48.730;10.294;2023-03-01T02:13:17;1.30;93.10
19232;DHT22;9750;48.730;10.294;2023-03-01T02:15:44;1.40;93.20
19232;DHT22;9750;48.730;10.294;2023-03-01T02:21:38;1.40;93.00
19232;DHT22;9750;48.730;10.294;2023-03-01T02:24:20;1.40;93.10
19232;DHT22;9750;48.730;10.294;2023-03-01T02:26:55;1.40;93.10
19232;DHT22;9750;48.730;10.294;2023-03-01T02:29:24;1.40;93.10
19232;DHT22;9750;48.730;10.294;2023-03-01T02:31:53;1.40;93.20
19232;DHT22;9750;48.730;10.294;2023-03-01T02:34:24;1.30;93.20
19232;DHT22;9750;48.730;10.294;2023-03-01T02:36:55;1.30;93.20
19232;DHT22;9750;48.730;10.294;2023-03-01T02:39:26;1.40;93.30
19232;DHT22;9750;48.730;10.294;2023-03-01T02:41:54;1.40;93.20
19232;DHT22;9750;48.730;10.294;2023-03-01T02:44:24;1.40;93.20
19232;DHT22;9750;48.730;10.294;2023-03-01T02:46:53;1.30;93.30
19232;DHT22;9750;48.730;10.294;2023-03-01T02:49:24;1.30;93.30
19232;DHT22;9750;48.730;10.294;2023-03-01T02:52:24;1.30;93.40
19232;DHT22;9750;48.730;10.294;2023-03-01T02:54:58;1.30;93.40
19232;DHT22;9750;48.730;10.294;2023-03-01T02:57:29;1.30;93.30
19232;DHT22;9750;48.730;10.294;2023-03-01T03:00:03;1.30;93.40
19232;DHT22;9750;48.730;10.294;2023-03-01T03:02:33;1.30;93.50
19232;DHT22;9750;48.730;10.294;2023-03-01T03:05:06;1.30;93.50
19232;DHT22;9750;48.730;10.294;2023-03-01T03:07:34;1.30;93.50
19232;DHT22;9750;48.730;10.294;2023-03-01T03:10:01;1.30;93.50
19232;DHT22;9750;48.730;10.294;2023-03-01T03:12:29;1.30;93.40
19232;DHT22;9750;48.730;10.294;2023-03-01T03:14:57;1.30;93.40
19232;DHT22;9750;48.730;10.294;2023-03-01T03:17:25;1.40;93.50
19232;DHT22;9750;48.730;10.294;2023-03-01T03:19:52;1.40;93.30
19232;DHT22;9750;48.730;10.294;2023-03-01T03:22:19;1.40;93.40
19232;DHT22;9750;48.730;10.294;2023-03-01T03:24:46;1.40;93.50
19232;DHT22;9750;48.730;10.294;2023-03-01T03:27:14;1.40;93.50
19232;DHT22;9750;48.730;10.294;2023-03-01T03:29:41;1.40;93.40
19232;DHT22;9750;48.730;10.294;2023-03-01T03:32:09;1.50;93.50
19232;DHT22;9750;48.730;10.294;2023-03-01T03:34:37;1.50;93.40
19232;DHT22;9750;48.730;10.294;2023-03-01T03:37:04;1.50;93.40
19232;DHT22;9750;48.730;10.294;2023-03-01T03:39:51;1.50;93.30
19232;DHT22;9750;48.730;10.294;2023-03-01T03:42:20;1.50;93.30
19232;DHT22;9750;48.730;10.294;2023-03-01T03:44:48;1.50;93.40
19232;DHT22;9750;48.730;10.294;2023-03-01T03:47:17;1.60;93.50
19232;DHT22;9750;48.730;10.294;2023-03-01T03:49:44;1.60;93.40
19232;DHT22;9750;48.730;10.294;2023-03-01T03:52:11;1.60;93.30
19232;DHT22;9750;48.730;10.294;2023-03-01T03:54:40;1.50;93.20
19232;DHT22;9750;48.730;10.294;2023-03-01T03:57:07;1.50;93.40
19232;DHT22;9750;48.730;10.294;2023-03-01T03:59:34;1.40;93.50
19232;DHT22;9750;48.730;10.294;2023-03-01T04:02:02;1.40;93.60
19232;DHT22;9750;48.730;10.294;2023-03-01T04:04:30;1.40;93.90
19232;DHT22;9750;48.730;10.294;2023-03-01T04:06:57;1.40;93.60
19232;DHT22;9750;48.730;10.294;2023-03-01T04:09:25;1.30;93.60
19232;DHT22;9750;48.730;10.294;2023-03-01T04:11:52;1.30;93.70
19232;DHT22;9750;48.730;10.294;2023-03-01T04:14:19;1.30;93.70
19232;DHT22;9750;48.730;10.294;2023-03-01T04:16:46;1.40;93.60
19232;DHT22;9750;48.730;10.294;2023-03-01T04:19:14;1.40;93.90
19232;DHT22;9750;48.730;10.294;2023-03-01T04:21:42;1.40;93.60
19232;DHT22;9750;48.730;10.294;2023-03-01T04:24:09;1.30;93.80
19232;DHT22;9750;48.730;10.294;2023-03-01T04:26:38;1.20;93.80
19232;DHT22;9750;48.730;10.294;2023-03-01T04:29:05;1.30;93.80
19232;DHT22;9750;48.730;10.294;2023-03-01T04:31:32;1.20;93.90
19232;DHT22;9750;48.730;10.294;2023-03-01T04:33:59;1.30;94.00
19232;DHT22;9750;48.730;10.294;2023-03-01T04:36:28;1.30;93.90
19232;DHT22;9750;48.730;10.294;2023-03-01T04:38:57;1.40;93.90
19232;DHT22;9750;48.730;10.294;2023-03-01T04:41:25;1.40;93.80
19232;DHT22;9750;48.730;10.294;2023-03-01T04:43:53;1.40;93.70
19232;DHT22;9750;48.730;10.294;2023-03-01T04:46:20;1.40;93.70
19232;DHT22;9750;48.730;10.294;2023-03-01T04:48:48;1.40;93.70
19232;DHT22;9750;48.730;10.294;2023-03-01T04:51:15;1.40;93.70
19232;DHT22;9750;48.730;10.294;2023-03-01T04:53:44;1.40;93.70
19232;DHT22;9750;48.730;10.294;2023-03-01T04:56:13;1.50;93.60
19232;DHT22;9750;48.730;10.294;2023-03-01T04:58:40;1.50;93.50
19232;DHT22;9750;48.730;10.294;2023-03-01T05:01:11;1.40;93.50
19232;DHT22;9750;48.730;10.294;2023-03-01T05:03:42;1.40;93.50
19232;DHT22;9750;48.730;10.294;2023-03-01T05:06:11;1.30;93.50
19232;DHT22;9750;48.730;10.294;2023-03-01T05:08:38;1.30;93.50
19232;DHT22;9750;48.730;10.294;2023-03-01T05:11:06;1.20;93.50
19232;DHT22;9750;48.730;10.294;2023-03-01T05:13:37;1.20;93.50
19232;DHT22;9750;48.730;10.294;2023-03-01T05:16:06;1.20;93.50
19232;DHT22;9750;48.730;10.294;2023-03-01T05:18:37;1.20;93.50
19232;DHT22;9750;48.730;10.294;2023-03-01T05:21:06;1.10;93.40
19232;DHT22;9750;48.730;10.294;2023-03-01T05:23:34;1.10;93.50
19232;DHT22;9750;48.730;10.294;2023-03-01T05:26:03;1.00;93.50
19232;DHT22;9750;48.730;10.294;2023-03-01T05:28:31;1.00;93.50
19232;DHT22;9750;48.730;10.294;2023-03-01T05:31:00;1.00;93.50
19232;DHT22;9750;48.730;10.294;2023-03-01T05:33:28;0.90;93.50
19232;DHT22;9750;48.730;10.294;2023-03-01T05:36:00;0.90;93.60
19232;DHT22;9750;48.730;10.294;2023-03-01T05:38:27;0.90;93.60
19232;DHT22;9750;48.730;10.294;2023-03-01T05:40:54;0.90;93.50
19232;DHT22;9750;48.730;10.294;2023-03-01T05:43:21;0.80;93.50
19232;DHT22;9750;48.730;10.294;2023-03-01T05:45:49;0.80;93.90
19232;DHT22;9750;48.730;10.294;2023-03-01T05:51:25;0.70;93.70
19232;DHT22;9750;48.730;10.294;2023-03-01T05:53:52;0.60;93.70
19232;DHT22;9750;48.730;10.294;2023-03-01T05:56:20;0.70;93.80
19232;DHT22;9750;48.730;10.294;2023-03-01T05:58:48;0.60;93.80
19232;DHT22;9750;48.730;10.294;2023-03-01T06:01:15;0.60;93.90
19232;DHT22;9750;48.730;10.294;2023-03-01T06:03:42;0.60;93.80
19232;DHT22;9750;48.730;10.294;2023-03-01T06:06:09;0.60;93.90
19232;DHT22;9750;48.730;10.294;2023-03-01T06:08:38;0.60;93.90
19232;DHT22;9750;48.730;10.294;2023-03-01T06:11:06;0.60;94.10
19232;DHT22;9750;48.730;10.294;2023-03-01T06:13:33;0.50;93.70
19232;DHT22;9750;48.730;10.294;2023-03-01T06:16:00;0.50;93.90
19232;DHT22;9750;48.730;10.294;2023-03-01T06:18:27;0.50;94.00
19232;DHT22;9750;48.730;10.294;2023-03-01T06:20:55;0.50;94.00
19232;DHT22;9750;48.730;10.294;2023-03-01T06:23:22;0.50;93.90
19232;DHT22;9750;48.730;10.294;2023-03-01T06:25:52;0.50;93.90
19232;DHT22;9750;48.730;10.294;2023-03-01T06:28:19;0.50;93.90
19232;DHT22;9750;48.730;10.294;2023-03-01T06:30:46;0.50;93.80
19232;DHT22;9750;48.730;10.294;2023-03-01T06:33:14;0.50;93.90
19232;DHT22;9750;48.730;10.294;2023-03-01T06:35:41;0.50;93.90
19232;DHT22;9750;48.730;10.294;2023-03-01T06:41:32;0.50;93.80
19232;DHT22;9750;48.730;10.294;2023-03-01T06:43:59;0.50;93.70
19232;DHT22;9750;48.730;10.294;2023-03-01T06:46:26;0.50;93.70
19232;DHT22;9750;48.730;10.294;2023-03-01T06:48:54;0.60;93.70
19232;DHT22;9750;48.730;10.294;2023-03-01T06:51:21;0.50;93.70
19232;DHT22;9750;48.730;10.294;2023-03-01T06:53:48;0.50;93.80
19232;DHT22;9750;48.730;10.294;2023-03-01T06:56:15;0.50;93.80
19232;DHT22;9750;48.730;10.294;2023-03-01T06:58:44;0.40;93.90
19232;DHT22;9750;48.730;10.294;2023-03-01T07:01:11;0.40;94.00
19232;DHT22;9750;48.730;10.294;2023-03-01T07:03:39;0.40;94.00
19232;DHT22;9750;48.730;10.294;2023-03-01T07:06:06;0.40;94.00
19232;DHT22;9750;48.730;10.294;2023-03-01T07:08:33;0.50;94.00
19232;DHT22;9750;48.730;10.294;2023-03-01T07:11:00;0.50;94.10
19232;DHT22;9750;48.730;10.294;2023-03-01T07:13:29;0.50;94.10
19232;DHT22;9750;48.730;10.294;2023-03-01T07:15:58;0.50;93.90
19232;DHT22;9750;48.730;10.294;2023-03-01T07:18:25;0.60;94.00
19232;DHT22;9750;48.730;10.294;2023-03-01T07:20:52;0.50;94.10
19232;DHT22;9750;48.730;10.294;2023-03-01T07:23:20;0.60;94.10
19232;DHT22;9750;48.730;10.294;2023-03-01T07:25:51;0.70;94.00
19232;DHT22;9750;48.730;10.294;2023-03-01T07:28:20;0.70;94.00
19232;DHT22;9750;48.730;10.294;2023-03-01T07:30:47;0.70;94.10
19232;DHT22;9750;48.730;10.294;2023-03-01T07:33:16;0.70;94.20
19232;DHT22;9750;48.730;10.294;2023-03-01T07:35:43;0.70;94.10
19232;DHT22;9750;48.730;10.294;2023-03-01T07:38:10;0.80;93.80
19232;DHT22;9750;48.730;10.294;2023-03-01T07:40:38;0.80;93.80
19232;DHT22;9750;48.730;10.294;2023-03-01T07:43:05;0.80;93.90
19232;DHT22;9750;48.730;10.294;2023-03-01T07:45:32;0.90;93.80
19232;DHT22;9750;48.730;10.294;2023-03-01T07:47:59;1.00;93.80
19232;DHT22;9750;48.730;10.294;2023-03-01T07:50:28;1.00;93.70
19232;DHT22;9750;48.730;10.294;2023-03-01T07:52:55;1.10;93.70
19232;DHT22;9750;48.730;10.294;2023-03-01T07:55:22;1.10;93.90
19232;DHT22;9750;48.730;10.294;2023-03-01T07:57:49;1.20;93.80
19232;DHT22;9750;48.730;10.294;2023-03-01T08:00:17;1.20;93.50
19232;DHT22;9750;48.730;10.294;2023-03-01T08:02:45;1.30;93.50
19232;DHT22;9750;48.730;10.294;2023-03-01T08:05:12;1.30;93.40
19232;DHT22;9750;48.730;10.294;2023-03-01T08:07:40;1.40;93.20
19232;DHT22;9750;48.730;10.294;2023-03-01T08:10:09;1.40;93.10
19232;DHT22;9750;48.730;10.294;2023-03-01T08:12:36;1.50;93.20
19232;DHT22;9750;48.730;10.294;2023-03-01T08:15:05;1.50;93.10
19232;DHT22;9750;48.730;10.294;2023-03-01T08:17:32;1.60;93.00
19232;DHT22;9750;48.730;10.294;2023-03-01T08:19:59;1.60;93.20
19232;DHT22;9750;48.730;10.294;2023-03-01T08:22:26;1.60;93.10
19232;DHT22;9750;48.730;10.294;2023-03-01T08:24:55;1.70;93.00
19232;DHT22;9750;48.730;10.294;2023-03-01T08:30:44;1.80;92.80
19232;DHT22;9750;48.730;10.294;2023-03-01T08:33:11;1.80;92.10
19232;DHT22;9750;48.730;10.294;2023-03-01T08:35:38;1.90;92.10
19232;DHT22;9750;48.730;10.294;2023-03-01T08:38:06;1.90;92.20
19232;DHT22;9750;48.730;10.294;2023-03-01T08:40:34;1.90;92.10
19232;DHT22;9750;48.730;10.294;2023-03-01T08:43:01;1.90;92.20
19232;DHT22;9750;48.730;10.294;2023-03-01T08:45:29;2.00;92.50
19232;DHT22;9750;48.730;10.294;2023-03-01T08:47:56;2.00;92.10
19232;DHT22;9750;48.730;10.294;2023-03-01T08:50:23;2.00;92.00
19232;DHT22;9750;48.730;10.294;2023-03-01T08:52:51;2.10;92.00
19232;DHT22;9750;48.730;10.294;2023-03-01T08:55:18;2.10;91.70
19232;DHT22;9750;48.730;10.294;2023-03-01T08:57:47;2.20;91.80
19232;DHT22;9750;48.730;10.294;2023-03-01T09:00:14;2.20;91.70
19232;DHT22;9750;48.730;10.294;2023-03-01T09:02:43;2.20;92.10
19232;DHT22;9750;48.730;10.294;2023-03-01T09:05:10;2.30;91.70
19232;DHT22;9750;48.730;10.294;2023-03-01T09:07:37;2.30;91.80
19232;DHT22;9750;48.730;10.294;2023-03-01T09:13:03;2.40;91.90
19232;DHT22;9750;48.730;10.294;2023-03-01T09:15:30;2.40;91.90
19232;DHT22;9750;48.730;10.294;2023-03-01T09:17:59;2.50;91.90
19232;DHT22;9750;48.730;10.294;2023-03-01T09:23:34;2.60;92.00
19232;DHT22;9750;48.730;10.294;2023-03-01T09:26:05;2.60;91.60
19232;DHT22;9750;48.730;10.294;2023-03-01T09:28:33;2.70;91.80
19232;DHT22;9750;48.730;10.294;2023-03-01T09:31:02;2.70;91.70
19232;DHT22;9750;48.730;10.294;2023-03-01T09:33:31;2.80;91.90
19232;DHT22;9750;48.730;10.294;2023-03-01T09:35:59;2.80;91.30
19232;DHT22;9750;48.730;10.294;2023-03-01T09:38:27;2.80;90.90
19232;DHT22;9750;48.730;10.294;2023-03-01T09:40:54;2.90;91.60
19232;DHT22;9750;48.730;10.294;2023-03-01T09:43:25;2.90;91.30
19232;DHT22;9750;48.730;10.294;2023-03-01T09:45:56;3.00;91.50
19232;DHT22;9750;48.730;10.294;2023-03-01T09:48:27;3.00;91.30
19232;DHT22;9750;48.730;10.294;2023-03-01T09:50:56;3.10;91.10
19232;DHT22;9750;48.730;10.294;2023-03-01T09:53:30;3.20;91.30
19232;DHT22;9750;48.730;10.294;2023-03-01T09:56:04;3.20;91.30
19232;DHT22;9750;48.730;10.294;2023-03-01T09:58:41;3.20;91.30
19232;DHT22;9750;48.730;10.294;2023-03-01T10:01:34;3.30;91.10
19232;DHT22;9750;48.730;10.294;2023-03-01T10:07:03;3.40;91.00
19232;DHT22;9750;48.730;10.294;2023-03-01T10:09:34;3.50;90.30
19232;DHT22;9750;48.730;10.294;2023-03-01T10:12:02;3.50;90.20
19232;DHT22;9750;48.730;10.294;2023-03-01T10:14:35;3.60;90.40
19232;DHT22;9750;48.730;10.294;2023-03-01T10:17:11;3.70;90.60
19232;DHT22;9750;48.730;10.294;2023-03-01T10:19:41;3.70;90.30
19232;DHT22;9750;48.730;10.294;2023-03-01T10:22:15;3.80;90.40
19232;DHT22;9750;48.730;10.294;2023-03-01T10:24:43;3.80;89.50
19232;DHT22;9750;48.730;10.294;2023-03-01T10:27:19;3.90;89.90
19232;DHT22;9750;48.730;10.294;2023-03-01T10:29:55;4.00;90.20
19232;DHT22;9750;48.730;10.294;2023-03-01T10:32:31;4.00;89.50
19232;DHT22;9750;48.730;10.294;2023-03-01T10:34:58;4.00;89.50
19232;DHT22;9750;48.730;10.294;2023-03-01T10:37:26;4.10;89.80
19232;DHT22;9750;48.730;10.294;2023-03-01T10:40:03;4.10;89.50
19232;DHT22;9750;48.730;10.294;2023-03-01T10:42:35;4.20;89.60
19232;DHT22;9750;48.730;10.294;2023-03-01T10:45:23;4.30;90.00
19232;DHT22;9750;48.730;10.294;2023-03-01T10:48:08;4.30;89.90
19232;DHT22;9750;48.730;10.294;2023-03-01T10:50:38;4.40;89.60
19232;DHT22;9750;48.730;10.294;2023-03-01T10:53:21;4.40;88.80
19232;DHT22;9750;48.730;10.294;2023-03-01T10:55:57;4.50;90.00
19232;DHT22;9750;48.730;10.294;2023-03-01T10:58:56;4.60;90.30
19232;DHT22;9750;48.730;10.294;2023-03-01T11:01:26;4.60;89.30
19232;DHT22;9750;48.730;10.294;2023-03-01T11:04:12;4.70;89.70
19232;DHT22;9750;48.730;10.294;2023-03-01T11:06:40;4.70;88.80
19232;DHT22;9750;48.730;10.294;2023-03-01T11:09:15;4.80;89.10
19232;DHT22;9750;48.730;10.294;2023-03-01T11:11:42;4.80;88.10
19232;DHT22;9750;48.730;10.294;2023-03-01T11:14:16;4.90;89.30
19232;DHT22;9750;48.730;10.294;2023-03-01T11:16:46;4.90;88.90
19232;DHT22;9750;48.730;10.294;2023-03-01T11:19:18;5.00;89.20
19232;DHT22;9750;48.730;10.294;2023-03-01T11:21:59;5.00;89.30
19232;DHT22;9750;48.730;10.294;2023-03-01T11:24:32;5.10;88.80
19232;DHT22;9750;48.730;10.294;2023-03-01T11:27:03;5.10;88.30
19232;DHT22;9750;48.730;10.294;2023-03-01T11:29:35;5.20;88.00
19232;DHT22;9750;48.730;10.294;2023-03-01T11:32:08;5.20;88.70
19232;DHT22;9750;48.730;10.294;2023-03-01T11:34:43;5.30;88.90
19232;DHT22;9750;48.730;10.294;2023-03-01T11:37:24;5.40;88.00
19232;DHT22;9750;48.730;10.294;2023-03-01T11:40:03;5.30;86.70
19232;DHT22;9750;48.730;10.294;2023-03-01T11:42:43;5.40;88.60
19232;DHT22;9750;48.730;10.294;2023-03-01T11:45:13;5.30;87.00
19232;DHT22;9750;48.730;10.294;2023-03-01T11:47:53;5.40;86.70
19232;DHT22;9750;48.730;10.294;2023-03-01T11:50:38;5.40;87.50
19232;DHT22;9750;48.730;10.294;2023-03-01T11:53:36;5.40;87.30
19232;DHT22;9750;48.730;10.294;2023-03-01T11:56:16;5.40;86.20
19232;DHT22;9750;48.730;10.294;2023-03-01T11:58:59;5.40;86.40
19232;DHT22;9750;48.730;10.294;2023-03-01T12:01:50;5.50;87.70
19232;DHT22;9750;48.730;10.294;2023-03-01T12:04:33;5.50;87.50
19232;DHT22;9750;48.730;10.294;2023-03-01T12:07:09;5.60;88.20
19232;DHT22;9750;48.730;10.294;2023-03-01T12:10:13;5.70;87.50
19232;DHT22;9750;48.730;10.294;2023-03-01T12:12:58;5.70;87.30
19232;DHT22;9750;48.730;10.294;2023-03-01T12:15:45;5.80;88.50
19232;DHT22;9750;48.730;10.294;2023-03-01T12:18:30;5.80;86.10
19232;DHT22;9750;48.730;10.294;2023-03-01T12:21:12;5.80;85.80
19232;DHT22;9750;48.730;10.294;2023-03-01T12:23:58;5.90;87.90
19232;DHT22;9750;48.730;10.294;2023-03-01T12:26:31;5.90;85.80
19232;DHT22;9750;48.730;10.294;2023-03-01T12:29:12;5.90;86.20
19232;DHT22;9750;48.730;10.294;2023-03-01T12:41:13;6.10;85.80
19232;DHT22;9750;48.730;10.294;2023-03-01T12:43:51;6.10;86.60
19232;DHT22;9750;48.730;10.294;2023-03-01T12:46:32;6.20;86.90
19232;DHT22;9750;48.730;10.294;2023-03-01T12:49:09;6.20;87.10
19232;DHT22;9750;48.730;10.294;2023-03-01T12:51:39;6.30;87.10
19232;DHT22;9750;48.730;10.294;2023-03-01T12:54:14;6.30;85.60
19232;DHT22;9750;48.730;10.294;2023-03-01T12:56:45;6.30;85.30
19232;DHT22;9750;48.730;10.294;2023-03-01T12:59:20;6.40;87.20
19232;DHT22;9750;48.730;10.294;2023-03-01T13:01:56;6.40;86.10
19232;DHT22;9750;48.730;10.294;2023-03-01T13:04:50;6.50;85.60
19232;DHT22;9750;48.730;10.294;2023-03-01T13:07:28;6.50;86.60
19232;DHT22;9750;48.730;10.294;2023-03-01T13:10:06;6.50;86.30
19232;DHT22;9750;48.730;10.294;2023-03-01T13:12:51;6.60;85.50
19232;DHT22;9750;48.730;10.294;2023-03-01T13:15:29;6.60;86.10
19232;DHT22;9750;48.730;10.294;2023-03-01T13:17:58;6.70;87.00
19232;DHT22;9750;48.730;10.294;2023-03-01T13:20:30;6.70;86.50
19232;DHT22;9750;48.730;10.294;2023-03-01T13:23:07;6.70;85.70
19232;DHT22;9750;48.730;10.294;2023-03-01T13:26:08;6.80;85.40
19232;DHT22;9750;48.730;10.294;2023-03-01T13:28:49;6.80;84.80
19232;DHT22;9750;48.730;10.294;2023-03-01T13:31:55;6.80;85.40
19232;DHT22;9750;48.730;10.294;2023-03-01T13:37:31;6.90;84.50
19232;DHT22;9750;48.730;10.294;2023-03-01T13:40:02;6.90;84.40
19232;DHT22;9750;48.730;10.294;2023-03-01T13:42:40;6.90;85.10
19232;DHT22;9750;48.730;10.294;2023-03-01T13:45:36;6.90;84.80
19232;DHT22;9750;48.730;10.294;2023-03-01T13:48:21;6.90;83.60
19232;DHT22;9750;48.730;10.294;2023-03-01T13:50:51;6.90;84.10
19232;DHT22;9750;48.730;10.294;2023-03-01T13:53:21;6.90;83.60
19232;DHT22;9750;48.730;10.294;2023-03-01T13:55:51;6.90;83.50
19232;DHT22;9750;48.730;10.294;2023-03-01T13:58:24;6.90;84.00
19232;DHT22;9750;48.730;10.294;2023-03-01T14:01:01;6.90;83.90
19232;DHT22;9750;48.730;10.294;2023-03-01T14:03:29;6.90;83.90
19232;DHT22;9750;48.730;10.294;2023-03-01T14:06:00;7.00;83.60
19232;DHT22;9750;48.730;10.294;2023-03-01T14:08:29;7.00;84.80
19232;DHT22;9750;48.730;10.294;2023-03-01T14:11:25;7.00;85.10
19232;DHT22;9750;48.730;10.294;2023-03-01T14:14:10;7.10;84.90
19232;DHT22;9750;48.730;10.294;2023-03-01T14:16:49;7.10;84.00
19232;DHT22;9750;48.730;10.294;2023-03-01T14:19:21;7.20;84.70
19232;DHT22;9750;48.730;10.294;2023-03-01T14:21:59;7.30;83.80
19232;DHT22;9750;48.730;10.294;2023-03-01T14:24:29;7.30;85.00
19232;DHT22;9750;48.730;10.294;2023-03-01T14:26:59;7.30;83.70
19232;DHT22;9750;48.730;10.294;2023-03-01T14:29:33;7.30;82.90
19232;DHT22;9750;48.730;10.294;2023-03-01T14:32:11;7.30;82.90
19232;DHT22;9750;48.730;10.294;2023-03-01T14:34:43;7.30;83.00
19232;DHT22;9750;48.730;10.294;2023-03-01T14:37:17;7.30;82.60
19232;DHT22;9750;48.730;10.294;2023-03-01T14:39:45;7.30;83.60
19232;DHT22;9750;48.730;10.294;2023-03-01T14:42:14;7.40;84.10
19232;DHT22;9750;48.730;10.294;2023-03-01T14:44:43;7.40;82.60
19232;DHT22;9750;48.730;10.294;2023-03-01T14:47:15;7.40;83.10
19232;DHT22;9750;48.730;10.294;2023-03-01T14:49:43;7.50;82.30
19232;DHT22;9750;48.730;10.294;2023-03-01T14:52:20;7.50;82.40
19232;DHT22;9750;48.730;10.294;2023-03-01T14:54:49;7.50;82.70
19232;DHT22;9750;48.730;10.294;2023-03-01T15:00:39;7.60;82.50
19232;DHT22;9750;48.730;10.294;2023-03-01T15:03:14;7.60;83.00
19232;DHT22;9750;48.730;10.294;2023-03-01T15:05:44;7.60;82.00
19232;DHT22;9750;48.730;10.294;2023-03-01T15:08:49;7.60;81.90
19232;DHT22;9750;48.730;10.294;2023-03-01T15:11:19;7.60;82.00
19232;DHT22;9750;48.730;10.294;2023-03-01T15:13:48;7.50;82.20
19232;DHT22;9750;48.730;10.294;2023-03-01T15:16:17;7.50;82.30
19232;DHT22;9750;48.730;10.294;2023-03-01T15:18:48;7.40;82.60
19232;DHT22;9750;48.730;10.294;2023-03-01T15:21:18;7.40;82.30
19232;DHT22;9750;48.730;10.294;2023-03-01T15:23:50;7.30;82.10
19232;DHT22;9750;48.730;10.294;2023-03-01T15:26:23;7.30;82.50
19232;DHT22;9750;48.730;10.294;2023-03-01T15:28:53;7.30;82.90
19232;DHT22;9750;48.730;10.294;2023-03-01T15:31:25;7.30;83.50
19232;DHT22;9750;48.730;10.294;2023-03-01T15:34:08;7.30;83.00
19232;DHT22;9750;48.730;10.294;2023-03-01T15:36:41;7.30;83.90
19232;DHT22;9750;48.730;10.294;2023-03-01T15:39:33;7.30;83.70
19232;DHT22;9750;48.730;10.294;2023-03-01T15:42:04;7.30;83.30
19232;DHT22;9750;48.730;10.294;2023-03-01T15:44:33;7.30;83.60
19232;DHT22;9750;48.730;10.294;2023-03-01T15:47:01;7.20;83.20
19232;DHT22;9750;48.730;10.294;2023-03-01T15:49:37;7.20;82.90
19232;DHT22;9750;48.730;10.294;2023-03-01T15:52:09;7.20;82.80
19232;DHT22;9750;48.730;10.294;2023-03-01T15:54:39;7.10;82.40
19232;DHT22;9750;48.730;10.294;2023-03-01T15:57:12;7.10;82.70
19232;DHT22;9750;48.730;10.294;2023-03-01T15:59:40;7.10;83.00
19232;DHT22;9750;48.730;10.294;2023-03-01T16:02:10;7.10;83.20
19232;DHT22;9750;48.730;10.294;2023-03-01T16:04:39;7.00;83.10
19232;DHT22;9750;48.730;10.294;2023-03-01T16:07:09;7.00;83.60
19232;DHT22;9750;48.730;10.294;2023-03-01T16:09:36;7.00;83.70
19232;DHT22;9750;48.730;10.294;2023-03-01T16:12:03;6.90;83.90
19232;DHT22;9750;48.730;10.294;2023-03-01T16:14:31;6.90;84.50
19232;DHT22;9750;48.730;10.294;2023-03-01T16:16:58;6.90;84.60
19232;DHT22;9750;48.730;10.294;2023-03-01T16:19:25;6.80;84.90
19232;DHT22;9750;48.730;10.294;2023-03-01T16:21:54;6.80;84.50
19232;DHT22;9750;48.730;10.294;2023-03-01T16:24:21;6.70;84.80
19232;DHT22;9750;48.730;10.294;2023-03-01T16:26:48;6.70;84.40
19232;DHT22;9750;48.730;10.294;2023-03-01T16:29:16;6.70;84.40
19232;DHT22;9750;48.730;10.294;2023-03-01T16:31:43;6.70;85.00
19232;DHT22;9750;48.730;10.294;2023-03-01T16:34:11;6.60;85.10
19232;DHT22;9750;48.730;10.294;2023-03-01T16:36:38;6.60;85.10
19232;DHT22;9750;48.730;10.294;2023-03-01T16:39:09;6.50;85.40
19232;DHT22;9750;48.730;10.294;2023-03-01T16:41:36;6.50;85.70
19232;DHT22;9750;48.730;10.294;2023-03-01T16:44:03;6.50;86.10
19232;DHT22;9750;48.730;10.294;2023-03-01T16:46:31;6.40;86.00
19232;DHT22;9750;48.730;10.294;2023-03-01T16:48:58;6.40;86.10
19232;DHT22;9750;48.730;10.294;2023-03-01T16:51:25;6.40;86.00